Terminal Aerodrome Forecast
Issued by NWS

Home | Current Version | Previous Version | Text Only | Print | Product List | Glossary On
Versions: 1 2 3 4 5 6 7 8 9 10 11 12 13 14 15 16 17 18
000
FTUS45 KTFX 202300
TAFHLN
TAF
KHLN 202324Z 2100/2124 VRB05KT P6SM SCT050 BKN070
     FM210800 18006KT P6SM VCSH SCT030 OVC050 PROB30 2110/2116
      -SHRASN BKN030
     FM211800 26011KT P6SM VCSH SCT030 BKN050=

USA.gov is the U.S. government's official web portal to all federal, state and local government web resources and services.